createdAt,value
2022-09-15T00:00:55.238Z,25.79
2022-09-15T00:02:57.245Z,25.40
2022-09-15T00:04:59.123Z,25.96
2022-09-15T00:07:00.795Z,24.86
2022-09-15T00:09:03.703Z,26.14
2022-09-15T00:11:18.262Z,26.06
2022-09-15T00:13:21.478Z,26.15
2022-09-15T00:15:24.073Z,26.16
2022-09-15T00:17:26.083Z,26.04
2022-09-15T00:19:27.771Z,25.42
2022-09-15T00:21:32.346Z,26.09
2022-09-15T00:23:34.439Z,26.50
2022-09-15T00:25:42.562Z,25.77
2022-09-15T00:27:44.256Z,25.64
2022-09-15T00:29:45.890Z,26.29
2022-09-15T00:31:47.569Z,26.21
2022-09-15T00:33:52.427Z,26.40
2022-09-15T00:35:54.362Z,26.23
2022-09-15T00:37:56.056Z,25.86
2022-09-15T00:39:57.831Z,26.09
2022-09-15T00:41:59.637Z,25.76
2022-09-15T00:44:35.904Z,26.39
2022-09-15T00:46:44.101Z,25.94
2022-09-15T00:48:58.237Z,26.44
2022-09-15T00:51:02.510Z,26.38
2022-09-15T00:53:09.058Z,25.54
2022-09-15T00:55:19.526Z,25.63
2022-09-15T01:01:03.291Z,26.10
2022-09-15T01:03:05.402Z,24.94
2022-09-15T01:05:10.403Z,25.73
2022-09-15T01:07:15.864Z,25.26
2022-09-15T01:09:22.669Z,24.02
2022-09-15T01:11:24.596Z,25.29
2022-09-15T01:13:27.003Z,24.97
2022-09-15T01:15:57.848Z,26.28
2022-09-15T01:18:27.791Z,25.49
2022-09-15T01:20:51.012Z,26.41
2022-09-15T01:23:18.641Z,26.08
2022-09-15T01:25:39.137Z,25.29
2022-09-15T01:28:11.776Z,25.29
2022-09-15T01:30:17.560Z,25.71
2022-09-15T01:32:40.170Z,25.82
2022-09-15T01:34:55.059Z,26.29
2022-09-15T01:37:06.391Z,26.98
2022-09-15T01:39:15.680Z,25.99
2022-09-15T01:41:36.003Z,26.58
2022-09-15T01:43:44.862Z,26.87
2022-09-15T01:45:49.799Z,26.57
2022-09-15T01:47:54.725Z,26.81
2022-09-15T01:50:13.841Z,26.69
2022-09-15T01:52:21.688Z,26.96
2022-09-15T01:54:28.233Z,26.65
2022-09-15T01:56:29.946Z,26.12
2022-09-15T01:58:33.295Z,26.07
2022-09-15T02:00:39.658Z,25.93
2022-09-15T02:03:04.267Z,26.34
2022-09-15T02:05:16.643Z,27.32
2022-09-15T02:07:35.654Z,27.42
2022-09-15T02:09:55.274Z,26.83
2022-09-15T02:12:14.596Z,27.42
2022-09-15T02:14:23.096Z,25.94
2022-09-15T02:16:29.712Z,26.75
2022-09-15T02:18:43.859Z,25.71
2022-09-15T02:20:52.389Z,26.22
2022-09-15T02:22:57.371Z,26.38
2022-09-15T02:24:58.984Z,25.89
2022-09-15T02:27:02.838Z,26.50
2022-09-15T02:29:09.599Z,26.41
2022-09-15T02:31:15.545Z,25.74
2022-09-15T02:33:21.272Z,25.85
2022-09-15T02:35:26.153Z,26.33
2022-09-15T02:37:27.946Z,26.50
2022-09-15T02:39:34.212Z,27.09
2022-09-15T02:41:37.423Z,24.87
2022-09-15T02:43:46.201Z,23.00
2022-09-15T02:45:47.878Z,25.91
2022-09-15T02:47:50.374Z,24.79
2022-09-15T02:49:52.109Z,24.46
2022-09-15T02:51:53.748Z,24.07
2022-09-15T02:53:55.411Z,25.63
2022-09-15T02:55:58.017Z,25.86
2022-09-15T02:58:00.182Z,26.34
2022-09-15T03:00:14.874Z,24.07
2022-09-15T03:02:20.530Z,25.38
2022-09-15T03:04:22.266Z,25.60
2022-09-15T03:06:24.600Z,26.04
2022-09-15T03:08:27.966Z,24.90
2022-09-15T03:10:29.575Z,26.75
2022-09-15T03:12:31.385Z,26.29
2022-09-15T03:14:33.011Z,25.90
2022-09-15T03:16:35.673Z,25.86
2022-09-15T03:18:38.411Z,25.46
2022-09-15T03:20:39.987Z,24.72
2022-09-15T03:22:42.109Z,24.97
2022-09-15T03:24:43.864Z,24.76
2022-09-15T03:26:49.303Z,25.82
2022-09-15T03:28:50.879Z,25.34
2022-09-15T03:30:53.571Z,26.84
2022-09-15T03:32:55.133Z,26.64
2022-09-15T03:34:58.615Z,25.88
2022-09-15T03:37:00.382Z,26.45
2022-09-15T03:39:02.397Z,26.83
2022-09-15T03:41:11.962Z,26.19
2022-09-15T03:43:18.539Z,25.98
2022-09-15T03:45:20.359Z,26.23
2022-09-15T03:47:21.932Z,26.43
2022-09-15T03:49:24.633Z,26.09
2022-09-15T03:51:26.221Z,26.50
2022-09-15T03:53:27.876Z,25.34
2022-09-15T03:55:29.548Z,27.09
2022-09-15T03:57:31.164Z,26.42
2022-09-15T03:59:32.781Z,26.58
2022-09-15T04:01:35.001Z,26.45
2022-09-15T04:03:42.737Z,26.77
2022-09-15T04:05:46.014Z,26.22
2022-09-15T04:07:47.615Z,26.38
2022-09-15T04:09:49.331Z,26.61
2022-09-15T04:11:51.086Z,26.64
2022-09-15T04:13:53.417Z,26.02
2022-09-15T04:16:03.355Z,26.81
2022-09-15T04:18:05.035Z,26.95
2022-09-15T04:20:07.688Z,26.42
2022-09-15T04:22:13.171Z,26.97
2022-09-15T04:24:17.214Z,27.10
2022-09-15T04:26:31.470Z,26.21
2022-09-15T04:28:35.654Z,26.55
2022-09-15T04:30:37.292Z,26.30
2022-09-15T04:32:38.864Z,25.91
2022-09-15T04:34:41.608Z,25.96
2022-09-15T04:36:43.323Z,26.69
2022-09-15T04:38:45.660Z,27.27
2022-09-15T04:40:47.341Z,27.18
2022-09-15T04:42:48.921Z,26.51
2022-09-15T04:44:51.023Z,26.41
2022-09-15T04:46:52.720Z,26.87
2022-09-15T04:48:55.676Z,26.56
2022-09-15T04:51:09.070Z,27.33
2022-09-15T04:53:10.960Z,26.93
2022-09-15T04:55:12.608Z,27.16
2022-09-15T04:57:14.251Z,27.07
2022-09-15T05:02:22.341Z,24.83
2022-09-15T05:04:23.893Z,25.40
2022-09-15T05:06:27.550Z,25.34
2022-09-15T05:08:29.096Z,25.18
2022-09-15T05:10:30.957Z,25.28
2022-09-15T05:12:33.000Z,25.55
2022-09-15T05:14:34.834Z,25.60
2022-09-15T05:16:36.578Z,26.06
2022-09-15T05:18:39.652Z,25.87
2022-09-15T05:20:41.190Z,25.09
2022-09-15T05:22:42.822Z,23.80
2022-09-15T05:24:44.348Z,25.68
2022-09-15T05:26:45.906Z,25.54
2022-09-15T05:28:47.544Z,25.78
2022-09-15T05:30:49.057Z,23.62
2022-09-15T05:32:50.658Z,25.20
2022-09-15T05:34:52.207Z,25.54
2022-09-15T05:36:54.312Z,24.92
2022-09-15T05:38:56.749Z,25.17
2022-09-15T05:41:07.253Z,23.74
2022-09-15T05:43:08.767Z,24.86
2022-09-15T05:45:10.926Z,24.59
2022-09-15T05:47:12.464Z,24.60
2022-09-15T05:49:14.346Z,24.82
2022-09-15T05:51:15.947Z,23.23
2022-09-15T05:53:18.207Z,23.20
2022-09-15T05:55:19.769Z,23.84
2022-09-15T05:57:21.317Z,24.54
2022-09-15T05:59:22.848Z,23.74
2022-09-15T06:01:29.160Z,23.65
2022-09-15T06:03:31.257Z,23.83
2022-09-15T06:05:32.955Z,23.34
2022-09-15T06:07:34.516Z,24.50
2022-09-15T06:09:36.181Z,23.53
2022-09-15T06:11:37.698Z,24.71
2022-09-15T06:13:40.266Z,24.86
2022-09-15T06:15:41.869Z,25.23
2022-09-15T06:17:43.433Z,24.95
2022-09-15T06:19:45.688Z,23.34
2022-09-15T06:21:47.565Z,25.18
2022-09-15T06:24:00.203Z,24.59
2022-09-15T06:26:11.195Z,22.27
2022-09-15T06:28:12.762Z,23.64
2022-09-15T06:30:14.358Z,24.64
2022-09-15T06:32:16.011Z,24.38
2022-09-15T06:34:18.239Z,24.61
2022-09-15T06:36:22.109Z,24.57
2022-09-15T06:38:23.690Z,23.48
2022-09-15T06:40:25.944Z,24.84
2022-09-15T06:42:27.743Z,23.95
2022-09-15T06:44:29.437Z,24.17
2022-09-15T06:46:31.053Z,23.53
2022-09-15T06:48:32.663Z,24.68
2022-09-15T06:50:34.171Z,25.21
2022-09-15T06:52:36.311Z,25.06
2022-09-15T06:54:37.891Z,23.82
2022-09-15T06:56:39.398Z,23.99
2022-09-15T06:58:42.587Z,24.34
2022-09-15T07:00:44.415Z,23.73
2022-09-15T07:02:49.703Z,24.61
2022-09-15T07:04:51.345Z,24.73
2022-09-15T07:06:52.878Z,23.74
2022-09-15T07:08:54.493Z,23.62
2022-09-15T07:10:56.639Z,24.67
2022-09-15T07:12:59.040Z,25.15
2022-09-15T07:15:00.700Z,24.37
2022-09-15T07:17:02.935Z,24.20
2022-09-15T07:19:05.923Z,24.88
2022-09-15T07:21:11.761Z,25.18
2022-09-15T07:23:13.590Z,25.28
2022-09-15T07:25:15.203Z,26.03
2022-09-15T07:27:16.832Z,24.09
2022-09-15T07:29:18.381Z,24.23
2022-09-15T07:31:21.964Z,24.01
2022-09-15T07:33:23.619Z,25.44
2022-09-15T07:35:25.161Z,25.38
2022-09-15T07:37:26.687Z,25.96
2022-09-15T07:39:29.066Z,25.44
2022-09-15T07:41:31.281Z,23.95
2022-09-15T07:43:33.060Z,25.06
2022-09-15T07:45:35.675Z,27.11
2022-09-15T07:47:37.820Z,26.30
2022-09-15T07:49:39.422Z,25.53
2022-09-15T07:51:41.068Z,25.44
2022-09-15T07:53:43.905Z,26.84
2022-09-15T07:55:45.431Z,27.24
2022-09-15T07:57:46.994Z,24.70
2022-09-15T07:59:48.542Z,25.59
2022-09-15T08:01:51.217Z,25.13
2022-09-15T08:03:53.096Z,24.58
2022-09-15T08:06:01.799Z,24.16
2022-09-15T08:08:03.397Z,24.92
2022-09-15T08:10:05.219Z,24.00
2022-09-15T08:12:08.112Z,24.06
2022-09-15T08:14:09.727Z,24.84
2022-09-15T08:16:16.946Z,25.10
2022-09-15T08:18:18.528Z,24.17
2022-09-15T08:20:20.827Z,23.41
2022-09-15T08:22:22.408Z,23.14
2022-09-15T08:24:24.183Z,21.70
2022-09-15T08:26:27.061Z,22.23
2022-09-15T08:28:28.601Z,22.79
2022-09-15T08:30:30.413Z,22.51
2022-09-15T08:32:31.944Z,21.53
2022-09-15T08:34:33.521Z,22.57
2022-09-15T08:36:35.122Z,22.07
2022-09-15T08:38:38.890Z,22.75
2022-09-15T08:40:46.114Z,22.96
2022-09-15T08:42:50.247Z,23.53
2022-09-15T08:44:57.662Z,23.70
2022-09-15T08:47:24.482Z,22.27
2022-09-15T08:49:50.622Z,22.89
2022-09-15T08:51:55.435Z,23.14
2022-09-15T08:54:05.329Z,22.72
2022-09-15T08:56:17.083Z,24.26
2022-09-15T08:58:21.750Z,24.31
2022-09-15T09:00:23.251Z,24.34
2022-09-15T09:02:44.208Z,24.46
2022-09-15T09:04:58.030Z,23.88
2022-09-15T09:06:59.531Z,23.22
2022-09-15T09:09:06.982Z,24.05
2022-09-15T09:11:23.785Z,24.18
2022-09-15T09:13:30.968Z,23.86
2022-09-15T09:15:43.785Z,23.49
2022-09-15T09:17:45.319Z,24.64
2022-09-15T09:20:08.543Z,24.33
2022-09-15T09:22:14.148Z,24.65
2022-09-15T09:24:18.314Z,23.86
2022-09-15T09:26:20.160Z,23.84
2022-09-15T09:28:35.341Z,23.83
2022-09-15T09:30:37.201Z,23.18
2022-09-15T09:33:15.520Z,23.56
2022-09-15T09:35:49.122Z,23.73
2022-09-15T09:37:52.672Z,23.20
2022-09-15T09:39:54.268Z,22.83
2022-09-15T09:41:56.132Z,22.60
2022-09-15T09:43:57.654Z,22.74
2022-09-15T09:45:59.386Z,24.02
2022-09-15T09:48:09.262Z,23.91
2022-09-15T09:50:42.886Z,24.05
2022-09-15T09:52:44.532Z,22.22
2022-09-15T09:54:50.535Z,22.86
2022-09-15T09:56:54.033Z,22.62
2022-09-15T09:58:55.588Z,23.82
2022-09-15T10:01:13.284Z,23.48
2022-09-15T10:03:29.427Z,23.77
2022-09-15T10:05:34.319Z,24.21
2022-09-15T10:07:43.675Z,24.47
2022-09-15T10:09:54.887Z,23.75
2022-09-15T10:12:00.116Z,24.48
2022-09-15T10:14:01.983Z,24.11
2022-09-15T10:16:06.344Z,23.88
2022-09-15T10:18:27.078Z,24.64
2022-09-15T10:20:38.353Z,24.43
2022-09-15T10:22:41.115Z,25.01
2022-09-15T10:24:42.720Z,24.89
2022-09-15T10:26:44.894Z,24.54
2022-09-15T10:29:14.323Z,24.86
2022-09-15T10:31:30.360Z,24.84
2022-09-15T10:33:40.407Z,24.66
2022-09-15T10:35:42.667Z,25.25
2022-09-15T10:37:59.837Z,24.45
2022-09-15T10:40:10.956Z,24.85
2022-09-15T10:42:25.507Z,25.27
2022-09-15T10:44:30.085Z,25.52
2022-09-15T10:46:39.288Z,25.84
2022-09-15T10:48:48.852Z,25.27
2022-09-15T10:50:56.793Z,25.11
2022-09-15T10:53:12.253Z,25.75
2022-09-15T10:55:53.049Z,25.04
2022-09-15T10:58:22.677Z,25.22
2022-09-15T11:03:21.364Z,22.71
2022-09-15T11:05:46.043Z,23.21
2022-09-15T11:08:05.808Z,23.85
2022-09-15T11:10:22.332Z,23.06
2022-09-15T11:12:38.961Z,23.42
2022-09-15T11:15:00.504Z,24.17
2022-09-15T11:17:16.860Z,24.07
2022-09-15T11:19:30.655Z,23.87
2022-09-15T11:21:37.438Z,23.46
2022-09-15T11:23:44.984Z,24.16
2022-09-15T11:25:56.958Z,23.98
2022-09-15T11:28:19.688Z,24.80
2022-09-15T11:30:29.741Z,24.55
2022-09-15T11:32:38.365Z,24.20
2022-09-15T11:34:49.268Z,24.22
2022-09-15T11:37:10.715Z,24.75
2022-09-15T11:39:24.773Z,24.38
2022-09-15T11:41:34.842Z,24.45
2022-09-15T11:44:03.818Z,24.41
2022-09-15T11:46:11.512Z,24.44
2022-09-15T11:48:45.361Z,25.07
2022-09-15T11:50:50.164Z,24.76
2022-09-15T11:53:13.386Z,25.12
2022-09-15T11:55:24.145Z,25.19
2022-09-15T11:57:32.148Z,24.75
2022-09-15T11:59:49.006Z,25.03
2022-09-15T12:01:58.903Z,23.76
2022-09-15T12:04:05.613Z,24.66
2022-09-15T12:06:15.140Z,24.40
2022-09-15T12:08:29.722Z,25.00
2022-09-15T12:10:39.918Z,25.02
2022-09-15T12:12:43.973Z,24.35
2022-09-15T12:14:48.238Z,24.34
2022-09-15T12:16:50.337Z,24.96
2022-09-15T12:19:27.064Z,24.58
2022-09-15T12:21:58.305Z,24.38
2022-09-15T12:24:14.805Z,25.31
2022-09-15T12:26:20.871Z,24.08
2022-09-15T12:28:22.450Z,25.03
2022-09-15T12:30:41.764Z,25.17
2022-09-15T12:32:43.330Z,24.06
2022-09-15T12:35:17.634Z,23.94
2022-09-15T12:37:19.290Z,24.91
2022-09-15T12:39:37.424Z,23.95
2022-09-15T12:41:47.067Z,22.79
2022-09-15T12:44:02.512Z,22.64
2022-09-15T12:46:04.555Z,24.49
2022-09-15T12:48:20.866Z,25.03
2022-09-15T12:50:36.272Z,25.83
2022-09-15T12:52:47.154Z,25.57
2022-09-15T12:54:57.278Z,26.08
2022-09-15T12:56:59.466Z,25.16
2022-09-15T12:59:13.275Z,25.20
2022-09-15T13:01:24.548Z,25.17
2022-09-15T13:05:47.328Z,26.27
2022-09-15T13:07:55.071Z,23.87
2022-09-15T13:10:17.237Z,25.27
2022-09-15T13:12:20.031Z,25.94
2022-09-15T13:14:28.015Z,24.24
2022-09-15T13:16:48.729Z,23.41
2022-09-15T13:19:18.632Z,22.92
2022-09-15T13:21:23.171Z,22.31
2022-09-15T13:23:27.268Z,21.46
2022-09-15T13:25:30.685Z,22.61
2022-09-15T13:27:51.910Z,22.88
2022-09-15T13:30:08.590Z,22.44
2022-09-15T13:32:19.132Z,22.31
2022-09-15T13:35:09.300Z,22.23
2022-09-15T13:38:06.846Z,23.48
2022-09-15T13:40:51.648Z,22.65
2022-09-15T13:43:04.998Z,21.62
2022-09-15T13:45:37.881Z,23.41
2022-09-15T13:48:00.421Z,22.58
2022-09-15T13:50:11.347Z,23.54
2022-09-15T13:52:26.904Z,23.04
2022-09-15T13:54:28.618Z,22.81
2022-09-15T13:56:35.634Z,22.40
2022-09-15T13:59:03.044Z,21.76
2022-09-15T14:01:06.929Z,22.66
2022-09-15T14:03:17.346Z,23.53
2022-09-15T14:05:21.339Z,22.95
2022-09-15T14:07:25.091Z,23.00
2022-09-15T14:09:33.198Z,23.07
2022-09-15T14:11:38.244Z,22.47
2022-09-15T14:13:46.280Z,23.06
2022-09-15T14:16:01.661Z,22.77
2022-09-15T14:18:03.225Z,22.84
2022-09-15T14:20:31.093Z,22.55
2022-09-15T14:22:34.207Z,21.78
2022-09-15T14:24:40.265Z,23.82
2022-09-15T14:26:41.824Z,23.43
2022-09-15T14:28:53.280Z,22.67
2022-09-15T14:30:54.951Z,24.53
2022-09-15T14:33:02.879Z,22.63
2022-09-15T14:35:08.086Z,23.82
2022-09-15T14:37:21.857Z,22.93
2022-09-15T14:39:23.767Z,22.97
2022-09-15T14:41:25.283Z,23.66
2022-09-15T14:43:40.413Z,22.70
2022-09-15T14:48:15.102Z,25.36
2022-09-15T14:50:21.531Z,24.72
2022-09-15T14:52:25.634Z,23.51
2022-09-15T14:54:37.100Z,24.89
2022-09-15T14:56:43.355Z,25.54
2022-09-15T14:59:07.173Z,24.27
2022-09-15T15:01:39.988Z,25.32
2022-09-15T15:03:50.762Z,24.33
2022-09-15T15:06:02.581Z,23.79
2022-09-15T15:08:07.448Z,22.88
2022-09-15T15:10:21.193Z,23.51
2022-09-15T15:12:39.243Z,23.60
2022-09-15T15:14:42.607Z,23.06
2022-09-15T15:16:53.652Z,22.48
2022-09-15T15:18:57.174Z,23.79
2022-09-15T15:21:01.690Z,24.42
2022-09-15T15:23:15.961Z,25.43
2022-09-15T15:25:27.650Z,23.94
2022-09-15T15:27:32.179Z,24.60
2022-09-15T15:29:43.992Z,23.90
2022-09-15T15:31:45.709Z,24.18
2022-09-15T15:34:00.310Z,25.86
2022-09-15T15:36:09.103Z,23.71
2022-09-15T15:38:18.426Z,25.54
2022-09-15T15:40:23.264Z,24.04
2022-09-15T15:42:26.196Z,23.56
2022-09-15T15:44:29.606Z,24.36
2022-09-15T15:46:53.286Z,25.09
2022-09-15T15:48:55.219Z,24.45
2022-09-15T15:50:56.932Z,25.78
2022-09-15T15:53:00.794Z,24.89
2022-09-15T15:55:02.326Z,24.00
2022-09-15T15:57:22.678Z,24.20
2022-09-15T15:59:24.275Z,26.17
2022-09-15T16:01:25.871Z,25.64
2022-09-15T16:03:27.700Z,23.92
2022-09-15T16:05:29.939Z,24.45
2022-09-15T16:07:33.386Z,25.68
2022-09-15T16:09:35.815Z,25.36
2022-09-15T16:11:37.400Z,23.43
2022-09-15T16:13:39.483Z,24.90
2022-09-15T16:15:42.242Z,25.40
2022-09-15T16:17:46.822Z,25.94
2022-09-15T16:19:48.714Z,25.93
2022-09-15T16:21:50.494Z,24.84
2022-09-15T16:23:52.139Z,25.23
2022-09-15T16:25:59.048Z,25.37
2022-09-15T16:28:00.951Z,24.91
2022-09-15T16:30:03.755Z,23.47
2022-09-15T16:32:06.075Z,25.31
2022-09-15T16:34:13.388Z,24.05
2022-09-15T16:36:18.144Z,25.88
2022-09-15T16:38:20.559Z,24.55
2022-09-15T16:40:22.110Z,25.97
2022-09-15T16:42:23.721Z,24.77
2022-09-15T16:44:25.334Z,25.21
2022-09-15T16:46:27.078Z,24.04
2022-09-15T16:48:28.587Z,26.13
2022-09-15T16:50:31.307Z,26.49
2022-09-15T16:52:32.961Z,25.12
2022-09-15T16:54:34.498Z,25.93
2022-09-15T16:56:36.007Z,26.90
2022-09-15T16:58:37.979Z,26.44
2022-09-15T17:00:40.185Z,25.87
2022-09-15T17:02:41.802Z,26.28
2022-09-15T17:04:43.365Z,26.51
2022-09-15T17:06:45.203Z,26.02
2022-09-15T17:08:46.755Z,25.92
2022-09-15T17:10:48.556Z,26.39
2022-09-15T17:12:50.706Z,26.76
2022-09-15T17:14:52.223Z,26.33
2022-09-15T17:16:53.836Z,25.68
2022-09-15T17:18:55.425Z,26.39
2022-09-15T17:20:57.127Z,26.34
2022-09-15T17:22:58.757Z,26.70
2022-09-15T17:25:00.309Z,25.78
2022-09-15T17:27:02.869Z,26.50
2022-09-15T17:29:04.442Z,26.70
2022-09-15T17:31:18.786Z,25.91
2022-09-15T17:33:20.935Z,26.00
2022-09-15T17:35:26.056Z,25.89
2022-09-15T17:37:27.623Z,25.42
2022-09-15T17:39:29.677Z,24.67
2022-09-15T17:41:32.066Z,24.85
2022-09-15T17:43:33.626Z,26.55
2022-09-15T17:45:36.682Z,26.08
2022-09-15T17:47:38.208Z,26.21
2022-09-15T17:49:39.777Z,26.78
2022-09-15T17:51:41.288Z,26.47
2022-09-15T17:53:42.967Z,26.46
2022-09-15T17:55:44.663Z,26.61
2022-09-15T17:57:47.306Z,25.53
2022-09-15T17:59:48.836Z,25.94
2022-09-15T18:01:50.960Z,26.40
2022-09-15T18:03:52.578Z,26.45
2022-09-15T18:05:56.247Z,26.58
2022-09-15T18:07:59.679Z,26.52
2022-09-15T18:10:01.226Z,25.99
2022-09-15T18:12:04.365Z,25.95
2022-09-15T18:14:06.741Z,26.69
2022-09-15T18:16:13.348Z,26.63
2022-09-15T18:18:21.041Z,26.78
2022-09-15T18:20:26.028Z,25.97
2022-09-15T18:22:27.662Z,26.02
2022-09-15T18:24:29.323Z,26.15
2022-09-15T18:26:30.871Z,23.98
2022-09-15T18:28:32.471Z,24.75
2022-09-15T18:30:40.500Z,22.94
2022-09-15T18:32:42.200Z,24.84
2022-09-15T18:34:43.730Z,25.72
2022-09-15T18:36:45.263Z,25.78
2022-09-15T18:38:46.813Z,25.86
2022-09-15T18:40:50.574Z,25.52
2022-09-15T18:42:52.481Z,25.56
2022-09-15T18:44:54.047Z,25.96
2022-09-15T18:46:55.561Z,25.97
2022-09-15T18:48:57.378Z,25.58
2022-09-15T18:50:58.988Z,25.94
2022-09-15T18:53:00.515Z,26.21
2022-09-15T18:55:02.385Z,26.36
2022-09-15T18:57:04.049Z,25.24
2022-09-15T18:59:05.633Z,26.10
2022-09-15T19:01:07.368Z,26.16
2022-09-15T19:03:09.638Z,26.01
2022-09-15T19:05:11.919Z,25.99
2022-09-15T19:07:13.504Z,25.49
2022-09-15T19:09:15.010Z,25.57
2022-09-15T19:11:17.674Z,25.42
2022-09-15T19:13:19.220Z,25.02
2022-09-15T19:15:23.719Z,25.26
2022-09-15T19:17:25.461Z,25.65
2022-09-15T19:19:27.046Z,24.84
2022-09-15T19:21:28.593Z,25.42
2022-09-15T19:23:30.166Z,25.85
2022-09-15T19:25:31.814Z,25.62
2022-09-15T19:27:33.980Z,25.86
2022-09-15T19:29:37.508Z,25.57
2022-09-15T19:31:41.988Z,25.72
2022-09-15T19:33:43.973Z,25.79
2022-09-15T19:35:46.147Z,25.52
2022-09-15T19:37:47.693Z,25.50
2022-09-15T19:39:49.550Z,25.14
2022-09-15T19:41:51.187Z,24.58
2022-09-15T19:43:53.683Z,24.66
2022-09-15T19:45:55.408Z,25.35
2022-09-15T19:47:56.951Z,24.80
2022-09-15T19:49:58.569Z,24.36
2022-09-15T19:52:00.121Z,25.39
2022-09-15T19:54:01.879Z,25.65
2022-09-15T19:56:04.369Z,25.79
2022-09-15T19:58:05.965Z,25.09
2022-09-15T20:00:09.543Z,24.77
2022-09-15T20:02:11.906Z,25.14
2022-09-15T20:06:33.455Z,25.59
2022-09-15T20:08:36.256Z,25.09
2022-09-15T20:10:39.535Z,25.21
2022-09-15T20:12:41.017Z,25.83
2022-09-15T20:14:42.535Z,25.39
2022-09-15T20:16:44.105Z,25.58
2022-09-15T20:18:47.926Z,25.68
2022-09-15T20:20:49.572Z,25.59
2022-09-15T20:22:51.169Z,25.15
2022-09-15T20:24:52.783Z,25.33
2022-09-15T20:26:54.531Z,25.38
2022-09-15T20:28:56.078Z,25.09
2022-09-15T20:31:00.209Z,24.92
2022-09-15T20:33:01.870Z,24.64
2022-09-15T20:35:03.565Z,25.38
2022-09-15T20:37:05.127Z,24.56
2022-09-15T20:39:11.951Z,24.78
2022-09-15T20:41:14.912Z,24.85
2022-09-15T20:43:16.429Z,25.08
2022-09-15T20:45:18.086Z,25.35
2022-09-15T20:47:19.651Z,24.75
2022-09-15T20:49:21.261Z,24.83
2022-09-15T20:51:25.920Z,24.67
2022-09-15T20:53:27.473Z,24.45
2022-09-15T20:55:29.046Z,24.89
2022-09-15T20:57:30.583Z,25.13
2022-09-15T20:59:32.124Z,24.80
2022-09-15T21:01:38.657Z,23.97
2022-09-15T21:03:41.955Z,24.32
2022-09-15T21:05:44.138Z,24.97
2022-09-15T21:07:47.905Z,24.56
2022-09-15T21:09:49.736Z,24.75
2022-09-15T21:11:53.659Z,24.89
2022-09-15T21:13:56.486Z,25.24
2022-09-15T21:15:59.979Z,24.81
2022-09-15T21:18:02.234Z,25.04
2022-09-15T21:20:03.940Z,25.16
2022-09-15T21:22:05.763Z,25.09
2022-09-15T21:24:08.695Z,25.11
2022-09-15T21:26:12.935Z,24.91
2022-09-15T21:28:14.480Z,24.94
2022-09-15T21:30:16.981Z,25.09
2022-09-15T21:32:19.056Z,24.98
2022-09-15T21:34:20.612Z,24.05
2022-09-15T21:36:27.933Z,25.24
2022-09-15T21:38:29.742Z,25.05
2022-09-15T21:40:31.911Z,25.18
2022-09-15T21:42:33.522Z,25.27
2022-09-15T21:44:35.021Z,25.12
2022-09-15T21:46:36.587Z,25.59
2022-09-15T21:48:38.874Z,25.52
2022-09-15T21:50:51.135Z,25.57
2022-09-15T21:52:52.828Z,25.62
2022-09-15T21:54:54.348Z,25.56
2022-09-15T21:56:56.798Z,25.27
2022-09-15T21:58:58.443Z,25.47
2022-09-15T22:01:09.626Z,25.34
2022-09-15T22:03:11.307Z,25.27
2022-09-15T22:05:12.910Z,24.63
2022-09-15T22:07:19.418Z,24.74
2022-09-15T22:09:21.431Z,25.19
2022-09-15T22:11:23.686Z,25.18
2022-09-15T22:13:25.510Z,25.17
2022-09-15T22:15:27.047Z,24.92
2022-09-15T22:17:28.610Z,24.26
2022-09-15T22:19:30.136Z,24.04
2022-09-15T22:21:36.596Z,24.34
2022-09-15T22:23:39.572Z,23.94
2022-09-15T22:25:41.095Z,24.97
2022-09-15T22:27:43.830Z,25.23
2022-09-15T22:29:45.389Z,24.79
2022-09-15T22:31:47.227Z,25.08
2022-09-15T22:33:49.387Z,25.33
2022-09-15T22:35:51.000Z,24.98
2022-09-15T22:37:52.524Z,24.61
2022-09-15T22:39:59.139Z,25.16
2022-09-15T22:42:01.096Z,25.51
2022-09-15T22:44:03.763Z,24.93
2022-09-15T22:46:06.704Z,24.58
2022-09-15T22:48:08.494Z,24.65
2022-09-15T22:50:10.049Z,25.01
2022-09-15T22:52:11.579Z,24.98
2022-09-15T22:54:13.213Z,24.83
2022-09-15T22:56:20.870Z,24.59
2022-09-15T22:58:22.398Z,24.43
2022-09-15T23:00:24.582Z,25.04
2022-09-15T23:02:26.853Z,25.09
2022-09-15T23:04:28.387Z,23.88
2022-09-15T23:06:33.427Z,24.79
2022-09-15T23:08:35.871Z,24.74
2022-09-15T23:10:37.437Z,25.08
2022-09-15T23:12:38.984Z,24.43
2022-09-15T23:14:40.496Z,24.71
2022-09-15T23:16:43.210Z,23.28
2022-09-15T23:18:45.300Z,24.49
2022-09-15T23:20:46.985Z,24.88
2022-09-15T23:22:48.559Z,24.95
2022-09-15T23:24:50.118Z,24.94
2022-09-15T23:26:51.669Z,24.85
2022-09-15T23:28:53.686Z,24.94
2022-09-15T23:30:57.107Z,24.64
2022-09-15T23:32:58.679Z,23.94
2022-09-15T23:35:00.367Z,24.80
2022-09-15T23:37:02.849Z,24.96
2022-09-15T23:39:04.431Z,24.84
2022-09-15T23:41:07.285Z,24.66
2022-09-15T23:43:10.187Z,24.84
2022-09-15T23:45:11.766Z,24.63
2022-09-15T23:47:13.333Z,24.71
2022-09-15T23:49:18.585Z,25.00
2022-09-15T23:51:20.476Z,24.85
2022-09-15T23:53:22.047Z,24.92
2022-09-15T23:55:23.661Z,25.18
2022-09-15T23:57:25.216Z,24.86
2022-09-15T23:59:26.786Z,24.94
